Time;durP1;ratioP1;P1;durP2;ratioP2;P2;SDS_P1;SDS_P2;PMS_P1;PMS_P2;Temp;Humidity;BMP_temperature;BMP_pressure;BME280_temperature;BME280_humidity;BME280_pressure;Samples;Min_cycle;Max_cycle;Signal;HPM_P1;HPM_P2
2023/09/20 00:01:22;;;;;;;;;;;;;;;20.44;64.81;99522.41;5056487;28;19970;-71
2023/09/20 00:03:47;;;;;;;;;;;;;;;20.38;65.09;99507.00;5039147;28;19921;-71
2023/09/20 00:06:12;;;;;;;;;;;;;;;20.32;65.32;99509.41;5057422;28;19996;-71
2023/09/20 00:08:38;;;;;;;;;;;;;;;20.19;65.85;99508.16;5039648;28;19913;-72
2023/09/20 00:11:05;;;;;;;;;;;;;;;20.24;65.91;99513.44;5039620;28;19913;-72
2023/09/20 00:13:32;;;;;;;;;;;;;;;20.27;65.50;99500.47;5057634;28;19915;-71
2023/09/20 00:15:57;;;;;;;;;;;;;;;20.25;65.59;99500.84;5056400;28;20320;-71
2023/09/20 00:18:25;;;;;;;;;;;;;;;20.20;66.06;99504.88;5057451;28;19909;-72
2023/09/20 00:20:51;;;;;;;;;;;;;;;20.14;66.23;99491.50;5057390;28;20380;-72
2023/09/20 00:23:20;;;;;;;;;;;;;;;20.13;66.37;99487.84;5057629;28;19915;-72
2023/09/20 00:25:46;;;;;;;;;;;;;;;20.28;65.79;99494.41;5039262;28;19920;-72
2023/09/20 00:28:12;;;;;;;;;;;;;;;20.20;65.30;99481.38;5056624;28;20316;-72
2023/09/20 00:30:37;;;;;;;;;;;;;;;20.23;64.58;99483.41;5036464;28;19962;-71
2023/09/20 00:33:03;;;;;;;;;;;;;;;20.23;64.81;99472.06;5052555;28;19970;-71
2023/09/20 00:35:28;;;;;;;;;;;;;;;20.16;65.23;99472.84;5054202;28;19912;-72
2023/09/20 00:37:54;;;;;;;;;;;;;;;20.25;65.40;99469.63;5034079;28;20360;-72
2023/09/20 00:40:21;;;;;;;;;;;;;;;20.34;65.11;99461.53;5034960;28;19959;-71
2023/09/20 00:42:47;;;;;;;;;;;;;;;20.28;65.63;99457.47;5052020;28;20000;-71
2023/09/20 00:45:15;;;;;;;;;;;;;;;20.41;65.09;99455.06;5036115;28;19916;-72
2023/09/20 00:47:44;;;;;;;;;;;;;;;20.41;65.09;99449.38;5051840;28;19919;-72
2023/09/20 00:50:13;;;;;;;;;;;;;;;20.26;65.47;99459.09;5054258;28;19909;-72
2023/09/20 00:52:40;;;;;;;;;;;;;;;19.95;66.63;99467.91;5053569;28;20011;-72
2023/09/20 00:55:06;;;;;;;;;;;;;;;19.45;68.75;99474.09;5052252;28;19924;-71
2023/09/20 00:57:32;;;;;;;;;;;;;;;19.73;68.05;99470.63;5053024;28;19913;-71
2023/09/20 00:59:58;;;;;;;;;;;;;;;19.89;67.64;99458.13;5053828;28;19935;-72
2023/09/20 01:02:23;;;;;;;;;;;;;;;20.11;66.80;99456.22;5052931;28;19912;-72
2023/09/20 01:04:49;;;;;;;;;;;;;;;19.89;66.98;99458.94;5052737;28;20408;-71
2023/09/20 01:07:14;;;;;;;;;;;;;;;20.03;66.69;99458.22;5053308;28;19909;-72
2023/09/20 01:09:40;;;;;;;;;;;;;;;20.30;65.91;99457.88;5035712;28;19912;-72
2023/09/20 01:12:06;;;;;;;;;;;;;;;20.10;66.28;99460.28;5053046;28;19923;-71
2023/09/20 01:14:31;;;;;;;;;;;;;;;20.23;66.04;99459.91;5053607;28;19912;-72
2023/09/20 01:16:56;;;;;;;;;;;;;;;20.11;66.32;99469.59;5053111;28;20289;-72
2023/09/20 01:19:22;;;;;;;;;;;;;;;20.09;66.07;99452.97;5053408;28;19951;-72
2023/09/20 01:21:47;;;;;;;;;;;;;;;20.11;66.25;99456.22;5053372;28;19913;-72
2023/09/20 01:24:13;;;;;;;;;;;;;;;20.32;65.68;99455.44;5052173;28;19975;-72
2023/09/20 01:26:41;;;;;;;;;;;;;;;20.56;64.85;99457.91;5066226;28;19912;-72
2023/09/20 01:29:07;;;;;;;;;;;;;;;20.70;64.36;99463.63;5053110;28;19951;-72
2023/09/20 01:31:33;;;;;;;;;;;;;;;20.75;64.38;99457.53;5053042;28;20409;-72
2023/09/20 01:33:59;;;;;;;;;;;;;;;20.39;65.90;99462.34;5067351;28;20385;-71
2023/09/20 01:36:24;;;;;;;;;;;;;;;20.48;65.75;99476.97;5035101;28;19916;-72
2023/09/20 01:38:51;;;;;;;;;;;;;;;20.44;66.63;99476.16;5051926;28;20304;-71
2023/09/20 01:41:19;;;;;;;;;;;;;;;20.41;67.55;99482.66;5051985;28;19919;-71
2023/09/20 01:43:44;;;;;;;;;;;;;;;20.48;67.35;99477.81;5034263;28;19983;-72
2023/09/20 01:46:09;;;;;;;;;;;;;;;19.94;69.81;99476.81;5032516;28;19913;-72
2023/09/20 01:48:36;;;;;;;;;;;;;;;19.47;72.01;99483.03;5032916;28;19967;-71
2023/09/20 01:51:02;;;;;;;;;;;;;;;19.13;73.74;99474.72;5032833;28;20053;-71
2023/09/20 01:53:27;;;;;;;;;;;;;;;19.07;74.37;99477.09;5014339;28;19921;-71
2023/09/20 01:55:53;;;;;;;;;;;;;;;19.05;74.65;99476.66;5012933;28;20324;-71
2023/09/20 01:58:18;;;;;;;;;;;;;;;19.03;74.61;99493.25;5014701;28;19913;-72
2023/09/20 02:00:45;;;;;;;;;;;;;;;19.15;74.43;99492.94;5032784;28;19916;-71
2023/09/20 02:03:14;;;;;;;;;;;;;;;19.00;76.05;99489.16;5032626;28;20345;-72
2023/09/20 02:05:39;;;;;;;;;;;;;;;19.07;75.29;99488.44;5022089;28;19913;-72
2023/09/20 02:08:05;;;;;;;;;;;;;;;19.21;74.76;99487.72;5020838;28;19913;-72
2023/09/20 02:10:31;;;;;;;;;;;;;;;19.04;75.46;99494.88;5012743;28;20031;-72
2023/09/20 02:12:57;;;;;;;;;;;;;;;18.90;76.45;99496.34;5032082;28;20012;-72
2023/09/20 02:15:24;;;;;;;;;;;;;;;19.15;75.33;99490.09;5031583;28;19913;-72
2023/09/20 02:17:50;;;;;;;;;;;;;;;19.14;74.92;99496.97;5032391;28;20332;-72
2023/09/20 02:20:19;;;;;;;;;;;;;;;19.38;73.45;99493.94;5014702;28;19909;-71
2023/09/20 02:22:46;;;;;;;;;;;;;;;19.38;73.38;99491.09;5025507;28;19909;-72
2023/09/20 02:25:11;;;;;;;;;;;;;;;19.49;72.97;99504.13;5027740;28;19941;-71
2023/09/20 02:27:38;;;;;;;;;;;;;;;19.52;73.10;99507.38;5008178;28;20381;-72
2023/09/20 02:30:04;;;;;;;;;;;;;;;19.52;72.85;99501.69;5014208;28;20302;-72
2023/09/20 02:32:31;;;;;;;;;;;;;;;19.53;72.45;99504.16;5014098;28;19917;-72
2023/09/20 02:34:56;;;;;;;;;;;;;;;19.57;72.19;99510.66;5032040;28;20011;-72
2023/09/20 02:37:23;;;;;;;;;;;;;;;19.62;72.18;99506.63;5047897;28;19944;-72
2023/09/20 02:39:48;;;;;;;;;;;;;;;19.60;72.51;99504.19;5032059;28;19995;-71
2023/09/20 02:42:13;;;;;;;;;;;;;;;19.39;73.48;99504.84;5017868;28;19970;-72
2023/09/20 02:44:39;;;;;;;;;;;;;;;19.26;74.18;99506.38;5034071;28;19935;-71
2023/09/20 02:47:04;;;;;;;;;;;;;;;19.10;75.15;99501.81;5051419;28;19913;-71
2023/09/20 02:49:30;;;;;;;;;;;;;;;19.26;74.38;99495.88;5051562;28;19909;-71
2023/09/20 02:51:55;;;;;;;;;;;;;;;19.21;74.93;99505.56;5051267;28;20003;-71
2023/09/20 02:54:21;;;;;;;;;;;;;;;19.02;75.76;99502.97;5032447;28;19913;-71
2023/09/20 02:56:46;;;;;;;;;;;;;;;18.92;76.38;99507.31;5065049;28;19948;-72
2023/09/20 02:59:11;;;;;;;;;;;;;;;18.75;76.63;99500.28;5032909;28;19913;-71
2023/09/20 03:01:38;;;;;;;;;;;;;;;18.84;76.57;99489.44;5031828;28;19940;-72
2023/09/20 03:04:04;;;;;;;;;;;;;;;18.72;77.07;99503.91;5026261;28;20301;-72
2023/09/20 03:06:29;;;;;;;;;;;;;;;18.57;77.72;99498.06;5051622;28;19913;-71
2023/09/20 03:08:54;;;;;;;;;;;;;;;18.71;77.33;99502.25;5049970;28;19909;-71
2023/09/20 03:11:25;;;;;;;;;;;;;;;18.84;76.68;99503.59;5051020;28;19919;-72
2023/09/20 03:13:51;;;;;;;;;;;;;;;18.80;76.53;99505.56;5051397;28;19908;-71
2023/09/20 03:16:19;;;;;;;;;;;;;;;18.77;76.23;99509.19;5032782;28;19909;-71
2023/09/20 03:18:45;;;;;;;;;;;;;;;18.82;76.08;99511.66;5051443;28;19995;-72
2023/09/20 03:21:11;;;;;;;;;;;;;;;18.51;77.31;99505.28;5050538;28;19928;-74
2023/09/20 03:23:37;;;;;;;;;;;;;;;18.23;78.58;99510.25;5050356;28;20002;-74
2023/09/20 03:26:03;;;;;;;;;;;;;;;18.38;78.67;99504.75;5066460;28;20432;-74
2023/09/20 03:28:28;;;;;;;;;;;;;;;18.50;77.90;99501.63;5033323;28;19942;-74
2023/09/20 03:30:55;;;;;;;;;;;;;;;18.07;79.74;99507.63;5033521;28;19915;-74
2023/09/20 03:33:21;;;;;;;;;;;;;;;18.20;79.66;99504.53;5049707;28;19919;-73
2023/09/20 03:35:47;;;;;;;;;;;;;;;18.02;80.73;99507.13;5051207;28;19913;-73
2023/09/20 03:38:14;;;;;;;;;;;;;;;18.21;79.91;99509.00;5051141;28;19963;-73
2023/09/20 03:40:41;;;;;;;;;;;;;;;18.21;79.80;99511.81;5051180;28;20380;-73
2023/09/20 03:43:08;;;;;;;;;;;;;;;18.25;79.53;99504.22;5050995;28;20331;-74
2023/09/20 03:45:34;;;;;;;;;;;;;;;17.64;81.21;99504.22;5033386;28;19908;-73
2023/09/20 03:48:01;;;;;;;;;;;;;;;17.69;81.61;99515.19;5066415;28;20412;-74
2023/09/20 03:50:26;;;;;;;;;;;;;;;17.71;79.99;99518.44;5031756;28;19977;-74
2023/09/20 03:52:52;;;;;;;;;;;;;;;17.76;80.06;99515.31;5050914;28;19924;-73
2023/09/20 03:55:17;;;;;;;;;;;;;;;18.08;78.56;99517.75;5031913;28;20304;-73
2023/09/20 03:57:43;;;;;;;;;;;;;;;18.12;77.61;99517.00;5050806;28;19913;-74
2023/09/20 04:00:11;;;;;;;;;;;;;;;17.76;77.88;99520.13;5050899;28;19908;-74
2023/09/20 04:02:36;;;;;;;;;;;;;;;17.70;78.54;99527.34;5051075;28;19955;-74
2023/09/20 04:05:13;;;;;;;;;;;;;;;17.54;78.87;99514.16;5051010;28;19948;-74
2023/09/20 04:07:39;;;;;;;;;;;;;;;17.61;78.68;99521.94;5047373;28;19948;-74
2023/09/20 04:10:05;;;;;;;;;;;;;;;17.93;77.51;99527.22;5069000;28;20371;-73
2023/09/20 04:12:30;;;;;;;;;;;;;;;18.10;76.55;99526.69;5053942;28;20004;-74
2023/09/20 04:14:57;;;;;;;;;;;;;;;18.02;76.44;99527.75;5050533;28;19912;-70
2023/09/20 04:17:25;;;;;;;;;;;;;;;17.77;77.74;99525.41;5062128;28;19909;-73
2023/09/20 04:19:51;;;;;;;;;;;;;;;17.87;77.38;99534.44;5053923;28;20369;-74
2023/09/20 04:22:16;;;;;;;;;;;;;;;17.87;77.69;99529.56;5068566;28;19942;-73
2023/09/20 04:24:42;;;;;;;;;;;;;;;18.00;76.96;99535.00;5035422;28;19908;-73
2023/09/20 04:27:08;;;;;;;;;;;;;;;18.01;76.25;99534.63;5053280;28;20339;-72
2023/09/20 04:29:34;;;;;;;;;;;;;;;17.45;78.72;99533.44;5054224;28;19909;-73
2023/09/20 04:31:59;;;;;;;;;;;;;;;17.18;80.08;99525.75;5053871;28;19920;-72
2023/09/20 04:34:25;;;;;;;;;;;;;;;17.17;80.22;99526.13;5033056;28;19908;-72
2023/09/20 04:36:52;;;;;;;;;;;;;;;17.00;80.81;99533.09;5029162;28;19920;-72
2023/09/20 04:39:18;;;;;;;;;;;;;;;16.83;81.95;99532.38;5031938;28;20353;-72
2023/09/20 04:41:43;;;;;;;;;;;;;;;16.94;81.31;99535.38;5050653;28;20010;-73
2023/09/20 04:44:08;;;;;;;;;;;;;;;16.71;82.47;99539.03;5033992;28;19916;-72
2023/09/20 04:46:39;;;;;;;;;;;;;;;16.78;81.87;99541.97;5053020;28;20003;-72
2023/09/20 04:49:05;;;;;;;;;;;;;;;16.98;80.95;99539.13;5035188;28;20374;-72
2023/09/20 04:51:30;;;;;;;;;;;;;;;17.33;79.94;99542.94;5032167;28;19923;-73
2023/09/20 04:53:56;;;;;;;;;;;;;;;17.54;78.96;99553.75;5033585;28;19912;-71
2023/09/20 04:56:21;;;;;;;;;;;;;;;17.21;79.85;99553.25;5051042;28;20000;-72
2023/09/20 04:58:47;;;;;;;;;;;;;;;16.95;81.98;99548.31;5034960;28;19963;-72
2023/09/20 05:01:13;;;;;;;;;;;;;;;17.23;81.10;99558.53;5069080;28;19909;-72
2023/09/20 05:03:39;;;;;;;;;;;;;;;17.62;79.70;99561.16;5069187;28;20381;-72
2023/09/20 05:06:05;;;;;;;;;;;;;;;17.90;78.30;99556.28;5069125;28;20294;-72
2023/09/20 05:08:31;;;;;;;;;;;;;;;18.08;77.67;99556.56;5069083;28;19909;-72
2023/09/20 05:10:56;;;;;;;;;;;;;;;18.30;76.87;99566.13;5052614;28;20317;-72
2023/09/20 05:13:22;;;;;;;;;;;;;;;18.33;77.04;99561.72;5053519;28;19991;-72
2023/09/20 05:15:48;;;;;;;;;;;;;;;18.27;76.86;99560.44;5034218;28;19920;-71
2023/09/20 05:18:13;;;;;;;;;;;;;;;18.61;76.04;99555.59;5053497;28;19908;-72
2023/09/20 05:20:39;;;;;;;;;;;;;;;18.65;75.70;99564.91;5053299;28;19963;-72
2023/09/20 05:23:05;;;;;;;;;;;;;;;18.86;75.83;99571.19;5053424;28;19909;-72
2023/09/20 05:25:31;;;;;;;;;;;;;;;18.89;75.39;99565.56;5068443;28;19912;-72
2023/09/20 05:27:56;;;;;;;;;;;;;;;19.05;74.94;99573.03;5064943;28;19912;-71
2023/09/20 05:30:22;;;;;;;;;;;;;;;19.16;75.26;99561.81;5027372;28;20016;-71
2023/09/20 05:38:26;;;;;;;;;;;;;;;19.26;73.70;99566.75;4763948;26;19924;-76
2023/09/20 05:40:51;;;;;;;;;;;;;;;19.45;73.68;99576.22;5043602;28;19920;-73
2023/09/20 05:43:17;;;;;;;;;;;;;;;19.53;72.76;99582.75;5048982;28;19970;-74
2023/09/20 05:45:42;;;;;;;;;;;;;;;19.72;71.56;99573.97;5049108;28;19917;-76
2023/09/20 05:48:09;;;;;;;;;;;;;;;19.74;71.28;99584.94;5031252;28;20730;-71
2023/09/20 05:50:35;;;;;;;;;;;;;;;19.81;70.45;99581.34;5049456;28;20003;-75
2023/09/20 05:53:04;;;;;;;;;;;;;;;19.66;70.59;99586.09;5054241;28;20039;-74
2023/09/20 05:55:33;;;;;;;;;;;;;;;19.77;70.53;99593.44;5046694;28;20388;-75
2023/09/20 05:58:00;;;;;;;;;;;;;;;19.84;69.26;99594.72;5067212;28;19916;-74
2023/09/20 06:00:25;;;;;;;;;;;;;;;19.90;69.93;99585.44;5044526;28;20448;-77
2023/09/20 06:02:50;;;;;;;;;;;;;;;20.17;69.37;99592.94;5034846;28;20007;-76
2023/09/20 06:05:16;;;;;;;;;;;;;;;20.14;69.27;99599.38;5050440;28;19913;-76
2023/09/20 06:07:41;;;;;;;;;;;;;;;20.07;69.55;99594.47;5053897;28;20367;-76
2023/09/20 06:10:09;;;;;;;;;;;;;;;19.99;70.14;99590.00;5048959;28;19908;-76
2023/09/20 06:12:34;;;;;;;;;;;;;;;20.20;68.99;99601.44;5048843;28;19921;-76
2023/09/20 06:15:00;;;;;;;;;;;;;;;20.50;68.72;99598.75;5052907;28;19908;-76
2023/09/20 06:17:29;;;;;;;;;;;;;;;20.59;67.84;99591.47;5036163;28;19920;-77
2023/09/20 06:19:56;;;;;;;;;;;;;;;20.57;68.84;99598.75;5032780;28;19924;-77
2023/09/20 06:22:22;;;;;;;;;;;;;;;20.74;68.07;99600.84;5031934;28;20277;-77
2023/09/20 06:24:48;;;;;;;;;;;;;;;20.77;67.58;99600.03;5050700;28;20040;-76
2023/09/20 06:27:13;;;;;;;;;;;;;;;20.72;68.65;99597.59;5032620;28;19932;-77
2023/09/20 06:29:39;;;;;;;;;;;;;;;20.73;68.39;99606.91;5041439;28;19927;-76
2023/09/20 06:32:04;;;;;;;;;;;;;;;20.72;67.93;99614.66;5030281;28;20389;-77
2023/09/20 06:34:30;;;;;;;;;;;;;;;20.56;69.06;99614.16;5043236;28;19923;-72
2023/09/20 06:36:55;;;;;;;;;;;;;;;20.71;68.52;99615.03;5050465;28;19939;-72
2023/09/20 06:39:20;;;;;;;;;;;;;;;20.40;69.41;99620.22;5051766;28;19915;-72
2023/09/20 06:41:46;;;;;;;;;;;;;;;20.36;70.79;99619.38;5051874;28;19913;-73
2023/09/20 06:44:14;;;;;;;;;;;;;;;20.74;70.06;99614.22;5032724;28;19913;-71
2023/09/20 06:46:42;;;;;;;;;;;;;;;20.55;70.80;99615.38;5033209;28;20439;-74
2023/09/20 06:49:08;;;;;;;;;;;;;;;20.72;70.15;99611.81;5031459;28;19912;-70
2023/09/20 06:51:34;;;;;;;;;;;;;;;20.99;69.10;99610.66;5050135;28;19917;-69
2023/09/20 06:53:59;;;;;;;;;;;;;;;21.19;68.83;99611.13;5056460;28;20304;-70
2023/09/20 06:56:25;;;;;;;;;;;;;;;21.46;67.93;99614.38;5045354;28;19928;-70
2023/09/20 06:58:52;;;;;;;;;;;;;;;21.42;69.01;99618.47;5042014;28;19923;-70
2023/09/20 07:01:17;;;;;;;;;;;;;;;21.30;68.81;99619.66;5030013;28;20032;-70
2023/09/20 07:03:43;;;;;;;;;;;;;;;21.21;69.16;99624.91;5032119;28;20424;-70
2023/09/20 07:06:08;;;;;;;;;;;;;;;20.79;70.39;99622.38;5045075;28;19919;-70
2023/09/20 07:08:34;;;;;;;;;;;;;;;20.65;70.14;99633.72;5047546;28;20436;-70
2023/09/20 07:11:00;;;;;;;;;;;;;;;20.89;70.04;99621.63;5038439;28;20332;-70
2023/09/20 07:13:26;;;;;;;;;;;;;;;21.14;68.53;99626.56;5042887;28;19970;-72
2023/09/20 07:15:54;;;;;;;;;;;;;;;20.89;69.48;99621.63;5048395;28;19939;-71
2023/09/20 07:18:20;;;;;;;;;;;;;;;21.00;68.77;99618.00;5051089;28;20333;-71
2023/09/20 07:20:45;;;;;;;;;;;;;;;21.49;67.53;99632.66;5032356;28;19913;-71
2023/09/20 07:23:11;;;;;;;;;;;;;;;21.60;66.86;99624.16;5043552;28;19912;-72
2023/09/20 07:25:37;;;;;;;;;;;;;;;21.81;66.42;99622.50;5061963;28;20008;-72
2023/09/20 07:28:04;;;;;;;;;;;;;;;22.23;65.32;99619.97;5051015;28;19999;-72
2023/09/20 07:30:31;;;;;;;;;;;;;;;22.37;64.53;99610.59;5051278;28;19916;-72
2023/09/20 07:32:59;;;;;;;;;;;;;;;22.49;64.43;99615.84;5050197;28;20312;-72
2023/09/20 07:35:29;;;;;;;;;;;;;;;22.54;63.77;99612.56;5050782;28;19908;-72
2023/09/20 07:37:58;;;;;;;;;;;;;;;22.72;62.86;99617.38;5051110;28;19917;-71
2023/09/20 07:40:30;;;;;;;;;;;;;;;23.05;63.48;99623.72;5035057;28;19991;-70
2023/09/20 07:42:59;;;;;;;;;;;;;;;23.19;61.53;99613.44;5055234;28;19909;-70
2023/09/20 07:45:31;;;;;;;;;;;;;;;23.00;61.23;99610.72;5045937;28;19913;-71
2023/09/20 07:47:56;;;;;;;;;;;;;;;22.50;62.25;99611.78;5041742;28;19928;-72
2023/09/20 07:50:22;;;;;;;;;;;;;;;22.89;61.50;99612.00;5044332;28;19917;-71
2023/09/20 07:52:48;;;;;;;;;;;;;;;23.36;60.18;99611.72;5036617;28;19941;-71
2023/09/20 07:55:13;;;;;;;;;;;;;;;23.77;59.54;99616.66;5058490;28;20408;-71
2023/09/20 07:57:39;;;;;;;;;;;;;;;24.02;58.16;99607.03;5054973;28;19909;-71
2023/09/20 08:00:10;;;;;;;;;;;;;;;24.29;56.52;99608.41;5064032;28;20122;-71
2023/09/20 08:02:37;;;;;;;;;;;;;;;24.48;56.31;99604.09;5074994;28;19908;-72
2023/09/20 08:05:05;;;;;;;;;;;;;;;24.64;55.20;99603.47;5037670;28;20706;-72
2023/09/20 08:07:31;;;;;;;;;;;;;;;24.20;56.09;99606.84;5054664;28;19959;-71
2023/09/20 08:09:56;;;;;;;;;;;;;;;24.34;57.30;99603.03;5054684;28;20394;-71
2023/09/20 08:12:21;;;;;;;;;;;;;;;24.51;56.74;99603.22;5055513;28;20007;-71
2023/09/20 08:14:46;;;;;;;;;;;;;;;24.85;55.83;99604.41;5074034;28;20006;-71
2023/09/20 08:19:55;;;;;;;;;;;;;;;25.16;52.58;99590.09;5074678;28;20497;-70
2023/09/20 08:22:21;;;;;;;;;;;;;;;25.32;53.67;99589.44;5055532;28;19918;-71
2023/09/20 09:00:24;;;;;;;;;;;;;;;26.63;48.21;99548.47;5051750;28;20398;-71
2023/09/20 09:02:57;;;;;;;;;;;;;;;26.77;47.61;99543.66;5034844;28;20619;-72
2023/09/20 09:05:24;;;;;;;;;;;;;;;26.91;46.92;99554.03;5053411;28;20035;-70
2023/09/20 09:07:50;;;;;;;;;;;;;;;27.23;46.52;99551.63;5053678;28;19912;-71
2023/09/20 09:10:15;;;;;;;;;;;;;;;27.04;45.74;99554.94;5053675;28;19916;-71
2023/09/20 09:12:42;;;;;;;;;;;;;;;27.32;44.59;99544.00;5053201;28;19970;-71
2023/09/20 09:15:11;;;;;;;;;;;;;;;26.40;46.36;99546.50;5034914;28;19977;-71
2023/09/20 09:17:40;;;;;;;;;;;;;;;26.33;46.17;99543.81;5053448;28;19908;-71
2023/09/20 09:20:09;;;;;;;;;;;;;;;26.69;45.80;99548.75;5053599;28;19975;-71
2023/09/20 09:22:34;;;;;;;;;;;;;;;26.89;45.35;99542.19;5035513;28;20304;-71
2023/09/20 09:24:59;;;;;;;;;;;;;;;27.22;44.52;99542.19;5053849;28;19917;-72
2023/09/20 09:27:25;;;;;;;;;;;;;;;26.86;43.58;99543.03;5053234;28;19999;-72
2023/09/20 09:29:50;;;;;;;;;;;;;;;27.33;44.76;99537.00;5053292;28;19915;-71
2023/09/20 09:32:19;;;;;;;;;;;;;;;27.43;44.11;99534.31;5035337;28;19920;-72
2023/09/20 09:34:44;;;;;;;;;;;;;;;27.60;42.98;99530.16;5053268;28;19912;-72
2023/09/20 09:37:12;;;;;;;;;;;;;;;27.82;42.03;99529.59;5052787;28;19921;-72
2023/09/20 09:39:39;;;;;;;;;;;;;;;27.89;41.98;99532.28;5051469;28;19913;-72
2023/09/20 09:42:06;;;;;;;;;;;;;;;28.20;41.71;99530.19;5062349;28;20034;-72
2023/09/20 09:44:52;;;;;;;;;;;;;;;28.45;41.10;99530.25;5042467;28;19971;-72
2023/09/20 09:47:18;;;;;;;;;;;;;;;28.44;42.00;99525.75;5052568;28;20442;-72
2023/09/20 09:49:45;;;;;;;;;;;;;;;28.64;40.43;99516.13;5030943;28;19921;-72
2023/09/20 09:52:11;;;;;;;;;;;;;;;29.04;40.29;99516.94;5049797;28;19925;-73
2023/09/20 09:54:38;;;;;;;;;;;;;;;29.03;39.03;99506.72;5034308;28;19912;-72
2023/09/20 09:57:03;;;;;;;;;;;;;;;29.22;39.77;99502.78;5062974;28;19966;-72
2023/09/20 09:59:28;;;;;;;;;;;;;;;29.42;39.12;99505.38;5054653;28;20311;-73
2023/09/20 10:01:55;;;;;;;;;;;;;;;29.69;39.15;99504.03;5052975;28;19908;-72
2023/09/20 10:04:20;;;;;;;;;;;;;;;29.36;37.33;99497.78;5068771;28;19912;-73
2023/09/20 10:06:45;;;;;;;;;;;;;;;28.95;39.31;99497.50;5050201;28;20316;-71
2023/09/20 10:09:12;;;;;;;;;;;;;;;29.37;38.18;99496.50;5050224;28;19976;-69
2023/09/20 10:11:38;;;;;;;;;;;;;;;29.59;38.25;99485.06;5052096;28;20394;-69
2023/09/20 10:14:09;;;;;;;;;;;;;;;29.66;39.38;99484.00;5051824;28;19940;-70
2023/09/20 10:16:42;;;;;;;;;;;;;;;29.93;37.96;99488.38;5028490;28;19923;-72
2023/09/20 10:19:17;;;;;;;;;;;;;;;30.12;36.72;99481.47;5035163;28;19917;-70
2023/09/20 10:22:01;;;;;;;;;;;;;;;30.38;37.21;99472.66;5037910;28;20007;-72
2023/09/20 10:24:28;;;;;;;;;;;;;;;28.89;37.90;99467.69;5031573;28;19909;-73
2023/09/20 10:26:54;;;;;;;;;;;;;;;29.40;37.24;99486.94;5030469;28;20566;-70
2023/09/20 10:29:25;;;;;;;;;;;;;;;29.94;37.22;99476.38;5047332;28;19916;-72
2023/09/20 10:31:54;;;;;;;;;;;;;;;30.26;36.55;99473.53;5033122;28;20403;-71
2023/09/20 10:34:21;;;;;;;;;;;;;;;30.03;37.04;99474.81;5046152;28;19953;-71
2023/09/20 10:36:57;;;;;;;;;;;;;;;30.08;36.55;99483.72;5027419;28;19921;-72
2023/09/20 10:39:23;;;;;;;;;;;;;;;29.03;37.41;99472.97;5021259;28;19967;-70
2023/09/20 10:41:49;;;;;;;;;;;;;;;29.45;38.38;99465.41;5061653;28;19916;-71
2023/09/20 10:44:36;;;;;;;;;;;;;;;29.83;36.09;99465.25;5050512;28;19909;-71
2023/09/20 10:47:06;;;;;;;;;;;;;;;29.87;35.59;99470.06;5045588;28;19952;-71
2023/09/20 10:49:50;;;;;;;;;;;;;;;29.97;35.45;99457.34;5051950;28;19951;-72
2023/09/20 10:52:31;;;;;;;;;;;;;;;29.24;36.74;99461.97;5037894;28;19916;-72
2023/09/20 10:55:24;;;;;;;;;;;;;;;29.59;35.83;99458.34;5031672;28;19913;-72
2023/09/20 10:57:50;;;;;;;;;;;;;;;28.91;36.57;99451.56;5028384;28;19915;-72
2023/09/20 11:00:30;;;;;;;;;;;;;;;28.56;37.28;99452.28;5029600;28;19932;-71
2023/09/20 11:02:56;;;;;;;;;;;;;;;29.59;35.94;99443.94;5030430;28;19924;-70
2023/09/20 11:05:23;;;;;;;;;;;;;;;30.05;35.30;99443.47;5049616;28;19920;-71
2023/09/20 11:07:50;;;;;;;;;;;;;;;30.36;33.47;99442.69;5043301;28;20277;-72
2023/09/20 11:10:17;;;;;;;;;;;;;;;30.49;32.38;99446.28;5045010;28;19913;-76
2023/09/20 11:12:43;;;;;;;;;;;;;;;30.54;33.01;99445.66;5045812;28;19921;-72
2023/09/20 11:15:10;;;;;;;;;;;;;;;30.76;32.27;99449.75;5041953;28;19916;-72
2023/09/20 11:17:35;;;;;;;;;;;;;;;30.68;31.88;99441.41;5033569;28;19909;-72
2023/09/20 11:20:00;;;;;;;;;;;;;;;30.78;32.51;99447.22;5064792;28;19935;-73
2023/09/20 11:22:26;;;;;;;;;;;;;;;30.88;31.03;99434.38;5037628;28;20029;-72
2023/09/20 11:24:54;;;;;;;;;;;;;;;30.82;31.98;99430.53;5037064;28;19970;-76
2023/09/20 11:27:20;;;;;;;;;;;;;;;31.12;31.28;99430.13;5051365;28;19908;-74
2023/09/20 11:29:45;;;;;;;;;;;;;;;31.39;31.51;99426.50;5050475;28;20492;-75
2023/09/20 11:32:15;;;;;;;;;;;;;;;31.27;31.21;99431.13;5033111;28;19971;-74
2023/09/20 11:34:44;;;;;;;;;;;;;;;31.50;30.79;99423.91;5049112;28;19932;-74
2023/09/20 11:37:10;;;;;;;;;;;;;;;31.56;31.15;99417.50;5071120;28;20381;-75
2023/09/20 11:39:35;;;;;;;;;;;;;;;31.59;31.36;99416.50;5053181;28;19913;-73
2023/09/20 11:42:01;;;;;;;;;;;;;;;31.77;31.00;99422.28;5032841;28;19912;-76
2023/09/20 11:44:27;;;;;;;;;;;;;;;31.62;31.23;99416.34;5051418;28;20335;-75
2023/09/20 11:46:54;;;;;;;;;;;;;;;31.56;30.75;99411.72;5030564;28;19979;-75
2023/09/20 11:49:20;;;;;;;;;;;;;;;31.56;30.58;99406.75;5048010;28;19916;-76
2023/09/20 11:51:45;;;;;;;;;;;;;;;30.60;31.94;99402.53;5032837;28;19913;-72
2023/09/20 11:54:10;;;;;;;;;;;;;;;31.16;31.84;99394.03;5034500;28;19916;-72
2023/09/20 11:56:37;;;;;;;;;;;;;;;31.31;30.98;99393.41;5029901;28;19920;-73
2023/09/20 11:59:09;;;;;;;;;;;;;;;31.35;30.08;99394.06;5030721;28;19912;-71
2023/09/20 12:01:38;;;;;;;;;;;;;;;31.45;30.33;99392.75;5059419;28;20303;-72
2023/09/20 12:04:03;;;;;;;;;;;;;;;31.73;30.23;99397.72;5030888;28;19996;-71
2023/09/20 12:06:29;;;;;;;;;;;;;;;31.82;29.42;99396.94;5027449;28;19944;-72
2023/09/20 12:08:54;;;;;;;;;;;;;;;31.65;29.52;99389.38;5032514;28;19919;-72
2023/09/20 12:11:20;;;;;;;;;;;;;;;32.00;29.07;99382.44;5050664;28;19913;-72
2023/09/20 12:13:47;;;;;;;;;;;;;;;31.82;30.41;99380.41;5047749;28;20309;-80
2023/09/20 12:16:13;;;;;;;;;;;;;;;32.06;29.27;99377.59;5029602;28;20455;-74
2023/09/20 12:18:38;;;;;;;;;;;;;;;32.11;28.75;99381.13;5035861;28;20007;-74
2023/09/20 12:21:04;;;;;;;;;;;;;;;32.27;28.74;99380.72;5051811;28;19912;-75
2023/09/20 12:23:29;;;;;;;;;;;;;;;32.13;29.21;99373.53;5031358;28;19947;-72
2023/09/20 12:25:55;;;;;;;;;;;;;;;32.39;28.74;99369.44;5045171;28;20572;-72
2023/09/20 12:28:20;;;;;;;;;;;;;;;32.05;29.62;99370.19;5051546;28;19921;-76
2023/09/20 12:30:46;;;;;;;;;;;;;;;31.98;28.76;99367.66;5030005;28;19936;-73
2023/09/20 12:33:11;;;;;;;;;;;;;;;31.70;29.74;99361.13;5045030;28;20015;-72
2023/09/20 12:35:40;;;;;;;;;;;;;;;31.47;29.23;99361.31;5061501;28;19986;-73
2023/09/20 12:38:05;;;;;;;;;;;;;;;31.41;29.02;99360.34;5050919;28;19955;-72
2023/09/20 12:40:32;;;;;;;;;;;;;;;31.29;29.37;99355.56;5052512;28;19983;-72
2023/09/20 12:42:58;;;;;;;;;;;;;;;31.17;29.42;99354.38;5053330;28;21471;-72
2023/09/20 12:45:24;;;;;;;;;;;;;;;31.33;29.85;99344.63;5054029;28;19916;-71
2023/09/20 12:47:49;;;;;;;;;;;;;;;31.52;29.95;99351.19;5053968;28;19908;-70
2023/09/20 12:50:14;;;;;;;;;;;;;;;31.24;30.73;99342.56;5053624;28;20423;-71
2023/09/20 12:52:46;;;;;;;;;;;;;;;31.30;30.86;99339.81;5061931;28;19930;-75
2023/09/20 12:55:13;;;;;;;;;;;;;;;31.35;30.00;99342.88;5055945;28;19912;-74
2023/09/20 12:57:38;;;;;;;;;;;;;;;31.20;30.24;99342.69;5059393;28;19916;-71
2023/09/20 13:00:05;;;;;;;;;;;;;;;31.19;30.29;99329.53;5035557;28;19913;-72
2023/09/20 13:02:31;;;;;;;;;;;;;;;31.17;30.05;99337.06;5065920;28;19924;-71
2023/09/20 13:04:59;;;;;;;;;;;;;;;31.41;29.58;99333.53;5054015;28;19908;-70
2023/09/20 13:07:26;;;;;;;;;;;;;;;31.41;29.50;99331.47;5051013;28;19919;-73
2023/09/20 13:09:51;;;;;;;;;;;;;;;31.83;28.68;99329.16;5031879;28;20016;-70
2023/09/20 13:12:17;;;;;;;;;;;;;;;32.05;27.73;99335.50;5039839;28;21718;-72
2023/09/20 13:14:42;;;;;;;;;;;;;;;32.18;28.10;99337.38;5052547;28;19920;-70
2023/09/20 13:17:07;;;;;;;;;;;;;;;32.34;28.74;99318.81;5051978;28;19975;-71
2023/09/20 13:19:33;;;;;;;;;;;;;;;32.44;28.38;99331.97;5050375;28;19986;-71
2023/09/20 13:22:00;;;;;;;;;;;;;;;32.54;28.01;99332.72;5033362;28;19952;-71
2023/09/20 13:24:25;;;;;;;;;;;;;;;32.48;28.04;99329.69;5035339;28;19909;-71
2023/09/20 13:26:50;;;;;;;;;;;;;;;32.15;28.58;99323.91;5052656;28;20355;-71
2023/09/20 13:29:16;;;;;;;;;;;;;;;32.23;27.60;99330.94;5051260;28;19940;-71